sensor_id;sensor_type;location;lat;lon;timestamp;pressure;altitude;pressure_sealevel;temperature;humidity
15007;BME280;7599;50.748;13.142;2024-02-23T00:00:40;93177.38;;;11.47;75.39
15007;BME280;7599;50.748;13.142;2024-02-23T00:03:43;93178.53;;;11.46;75.04
15007;BME280;7599;50.748;13.142;2024-02-23T00:10:55;93180.06;;;11.36;75.22
15007;BME280;7599;50.748;13.142;2024-02-23T00:13:58;93193.91;;;11.42;75.17
15007;BME280;7599;50.748;13.142;2024-02-23T00:17:01;93218.13;;;11.45;75.74
15007;BME280;7599;50.748;13.142;2024-02-23T00:20:04;93208.88;;;11.43;75.57
15007;BME280;7599;50.748;13.142;2024-02-23T00:23:08;93191.59;;;11.40;75.54
15007;BME280;7599;50.748;13.142;2024-02-23T00:26:12;93192.00;;;11.39;75.61
15007;BME280;7599;50.748;13.142;2024-02-23T00:29:15;93202.34;;;11.44;75.29
15007;BME280;7599;50.748;13.142;2024-02-23T00:32:18;93193.16;;;11.41;75.04
15007;BME280;7599;50.748;13.142;2024-02-23T00:35:20;93185.84;;;11.38;75.30
15007;BME280;7599;50.748;13.142;2024-02-23T00:38:23;93184.69;;;11.39;75.50
15007;BME280;7599;50.748;13.142;2024-02-23T00:41:30;93179.31;;;11.43;75.49
15007;BME280;7599;50.748;13.142;2024-02-23T00:44:33;93187.00;;;11.41;75.13
15007;BME280;7599;50.748;13.142;2024-02-23T00:47:35;93188.91;;;11.44;75.32
15007;BME280;7599;50.748;13.142;2024-02-23T00:50:41;93186.63;;;11.39;75.74
15007;BME280;7599;50.748;13.142;2024-02-23T00:53:44;93218.47;;;11.40;75.33
15007;BME280;7599;50.748;13.142;2024-02-23T00:56:48;93227.34;;;11.41;75.37
15007;BME280;7599;50.748;13.142;2024-02-23T00:59:53;93242.31;;;11.42;75.23
15007;BME280;7599;50.748;13.142;2024-02-23T01:02:56;93235.00;;;11.39;75.31
15007;BME280;7599;50.748;13.142;2024-02-23T01:06:04;93236.53;;;11.43;75.71
15007;BME280;7599;50.748;13.142;2024-02-23T01:09:06;93236.19;;;11.41;75.25
15007;BME280;7599;50.748;13.142;2024-02-23T01:12:26;93258.81;;;11.40;75.54
15007;BME280;7599;50.748;13.142;2024-02-23T01:15:38;93272.28;;;11.44;75.69
15007;BME280;7599;50.748;13.142;2024-02-23T01:18:41;93283.03;;;11.44;75.51
15007;BME280;7599;50.748;13.142;2024-02-23T01:21:44;93272.66;;;11.39;75.30
15007;BME280;7599;50.748;13.142;2024-02-23T01:24:47;93304.16;;;11.42;75.53
15007;BME280;7599;50.748;13.142;2024-02-23T01:27:51;93312.63;;;11.44;75.41
15007;BME280;7599;50.748;13.142;2024-02-23T01:30:53;93317.22;;;11.40;75.52
15007;BME280;7599;50.748;13.142;2024-02-23T01:33:59;93328.75;;;11.44;75.50
15007;BME280;7599;50.748;13.142;2024-02-23T01:37:04;93326.03;;;11.40;75.47
15007;BME280;7599;50.748;13.142;2024-02-23T01:40:10;93326.84;;;11.41;75.56
15007;BME280;7599;50.748;13.142;2024-02-23T01:43:18;93323.00;;;11.38;75.60
15007;BME280;7599;50.748;13.142;2024-02-23T01:46:21;93323.00;;;11.38;75.48
15007;BME280;7599;50.748;13.142;2024-02-23T01:49:26;93326.44;;;11.39;75.21
15007;BME280;7599;50.748;13.142;2024-02-23T01:52:32;93318.75;;;11.37;75.21
15007;BME280;7599;50.748;13.142;2024-02-23T01:55:37;93318.75;;;11.33;75.39
15007;BME280;7599;50.748;13.142;2024-02-23T01:58:41;93334.91;;;11.41;75.29
15007;BME280;7599;50.748;13.142;2024-02-23T02:01:51;93336.44;;;11.38;75.09
15007;BME280;7599;50.748;13.142;2024-02-23T02:04:54;93338.38;;;11.41;75.16
15007;BME280;7599;50.748;13.142;2024-02-23T02:08:01;93342.59;;;11.42;75.56
15007;BME280;7599;50.748;13.142;2024-02-23T02:11:03;93349.88;;;11.38;75.36
15007;BME280;7599;50.748;13.142;2024-02-23T02:17:26;93361.41;;;11.42;75.18
15007;BME280;7599;50.748;13.142;2024-02-23T02:20:39;93359.13;;;11.41;75.49
15007;BME280;7599;50.748;13.142;2024-02-23T02:23:43;93369.47;;;11.42;74.97
15007;BME280;7599;50.748;13.142;2024-02-23T02:26:48;93379.84;;;11.40;75.07
15007;BME280;7599;50.748;13.142;2024-02-23T02:29:53;93370.63;;;11.38;75.29
15007;BME280;7599;50.748;13.142;2024-02-23T02:32:57;93376.38;;;11.40;75.21
15007;BME280;7599;50.748;13.142;2024-02-23T02:36:00;93387.53;;;11.38;75.20
15007;BME280;7599;50.748;13.142;2024-02-23T02:39:03;93390.22;;;11.38;75.13
15007;BME280;7599;50.748;13.142;2024-02-23T02:42:11;93389.44;;;11.38;74.76
15007;BME280;7599;50.748;13.142;2024-02-23T02:45:14;93397.53;;;11.41;75.12
15007;BME280;7599;50.748;13.142;2024-02-23T02:48:22;93405.59;;;11.38;74.92
15007;BME280;7599;50.748;13.142;2024-02-23T02:51:25;93410.19;;;11.37;75.08
15007;BME280;7599;50.748;13.142;2024-02-23T02:54:28;93400.19;;;11.34;74.83
15007;BME280;7599;50.748;13.142;2024-02-23T02:57:41;93409.41;;;11.33;75.41
15007;BME280;7599;50.748;13.142;2024-02-23T03:00:43;93404.78;;;11.30;74.65
15007;BME280;7599;50.748;13.142;2024-02-23T03:03:47;93400.97;;;11.35;75.30
15007;BME280;7599;50.748;13.142;2024-02-23T03:06:50;93412.88;;;11.37;75.03
15007;BME280;7599;50.748;13.142;2024-02-23T03:09:53;93422.47;;;11.38;74.69
15007;BME280;7599;50.748;13.142;2024-02-23T03:12:56;93432.47;;;11.34;74.83
15007;BME280;7599;50.748;13.142;2024-02-23T03:15:59;93452.06;;;11.38;75.29
15007;BME280;7599;50.748;13.142;2024-02-23T03:19:03;93439.34;;;11.31;75.24
15007;BME280;7599;50.748;13.142;2024-02-23T03:22:06;93461.28;;;11.37;74.76
15007;BME280;7599;50.748;13.142;2024-02-23T03:25:09;93464.72;;;11.34;74.97
15007;BME280;7599;50.748;13.142;2024-02-23T03:28:12;93477.78;;;11.36;74.86
15007;BME280;7599;50.748;13.142;2024-02-23T03:31:15;93485.84;;;11.36;74.89
15007;BME280;7599;50.748;13.142;2024-02-23T03:34:24;93516.19;;;11.36;74.84
15007;BME280;7599;50.748;13.142;2024-02-23T03:37:27;93516.19;;;11.32;74.96
15007;BME280;7599;50.748;13.142;2024-02-23T03:40:32;93521.16;;;11.30;75.20
15007;BME280;7599;50.748;13.142;2024-02-23T03:43:35;93519.63;;;11.26;74.56
15007;BME280;7599;50.748;13.142;2024-02-23T03:46:39;93546.13;;;11.31;75.01
15007;BME280;7599;50.748;13.142;2024-02-23T03:49:43;93570.38;;;11.35;74.82
15007;BME280;7599;50.748;13.142;2024-02-23T03:52:46;93560.72;;;11.30;74.91
15007;BME280;7599;50.748;13.142;2024-02-23T03:55:49;93581.88;;;11.35;74.77
15007;BME280;7599;50.748;13.142;2024-02-23T03:58:51;93546.13;;;11.31;75.36
15007;BME280;7599;50.748;13.142;2024-02-23T04:02:23;93564.19;;;11.30;75.35
15007;BME280;7599;50.748;13.142;2024-02-23T04:24:08;93598.03;;;11.35;75.00
15007;BME280;7599;50.748;13.142;2024-02-23T04:27:15;93590.72;;;11.32;74.74
15007;BME280;7599;50.748;13.142;2024-02-23T04:30:31;93608.78;;;11.35;75.03
15007;BME280;7599;50.748;13.142;2024-02-23T04:33:38;93598.78;;;11.32;74.64
15007;BME280;7599;50.748;13.142;2024-02-23T04:36:49;93611.88;;;11.37;74.21
15007;BME280;7599;50.748;13.142;2024-02-23T04:39:53;93614.94;;;11.32;74.58
15007;BME280;7599;50.748;13.142;2024-02-23T04:42:56;93628.38;;;11.36;75.00
15007;BME280;7599;50.748;13.142;2024-02-23T04:45:59;93642.19;;;11.34;75.01
15007;BME280;7599;50.748;13.142;2024-02-23T04:49:01;93651.41;;;11.33;74.64
15007;BME280;7599;50.748;13.142;2024-02-23T04:52:05;93654.91;;;11.37;74.68
15007;BME280;7599;50.748;13.142;2024-02-23T04:55:09;93657.19;;;11.35;74.85
15007;BME280;7599;50.748;13.142;2024-02-23T04:58:14;93654.91;;;11.37;74.61
15007;BME280;7599;50.748;13.142;2024-02-23T05:01:20;93656.44;;;11.38;74.53
15007;BME280;7599;50.748;13.142;2024-02-23T05:04:23;93654.13;;;11.37;74.89
15007;BME280;7599;50.748;13.142;2024-02-23T05:07:28;93658.75;;;11.40;74.63
15007;BME280;7599;50.748;13.142;2024-02-23T05:10:47;93672.97;;;11.37;74.90
15007;BME280;7599;50.748;13.142;2024-02-23T05:13:50;93676.41;;;11.37;74.94
15007;BME280;7599;50.748;13.142;2024-02-23T05:16:54;93655.25;;;11.36;74.95
15007;BME280;7599;50.748;13.142;2024-02-23T05:19:57;93662.56;;;11.35;74.90
15007;BME280;7599;50.748;13.142;2024-02-23T05:23:00;93663.75;;;11.38;74.85
15007;BME280;7599;50.748;13.142;2024-02-23T05:26:04;93661.41;;;11.36;74.39
15007;BME280;7599;50.748;13.142;2024-02-23T05:29:08;93667.56;;;11.33;74.89
15007;BME280;7599;50.748;13.142;2024-02-23T05:32:11;93676.41;;;11.37;74.79
15007;BME280;7599;50.748;13.142;2024-02-23T05:35:14;93673.72;;;11.37;75.14
15007;BME280;7599;50.748;13.142;2024-02-23T05:38:37;93678.31;;;11.33;74.88
15007;BME280;7599;50.748;13.142;2024-02-23T05:41:41;93691.00;;;11.36;74.64
15007;BME280;7599;50.748;13.142;2024-02-23T05:44:44;93695.97;;;11.34;74.73
15007;BME280;7599;50.748;13.142;2024-02-23T05:47:47;93706.34;;;11.36;74.81
15007;BME280;7599;50.748;13.142;2024-02-23T05:50:50;93687.88;;;11.30;74.76
15007;BME280;7599;50.748;13.142;2024-02-23T05:53:52;93710.63;;;11.37;74.76
15007;BME280;7599;50.748;13.142;2024-02-23T05:56:57;93701.28;;;11.27;75.00
15007;BME280;7599;50.748;13.142;2024-02-23T06:00:00;93719.81;;;11.32;74.90
15007;BME280;7599;50.748;13.142;2024-02-23T06:03:02;93719.03;;;11.35;74.67
15007;BME280;7599;50.748;13.142;2024-02-23T06:06:07;93728.63;;;11.32;74.54
15007;BME280;7599;50.748;13.142;2024-02-23T06:09:10;93740.97;;;11.37;74.38
15007;BME280;7599;50.748;13.142;2024-02-23T06:12:17;93741.63;;;11.27;74.96
15007;BME280;7599;50.748;13.142;2024-02-23T06:15:22;93736.31;;;11.34;74.75
15007;BME280;7599;50.748;13.142;2024-02-23T06:18:24;93734.00;;;11.32;74.68
15007;BME280;7599;50.748;13.142;2024-02-23T06:21:29;93755.91;;;11.35;75.26
15007;BME280;7599;50.748;13.142;2024-02-23T06:24:34;93744.78;;;11.32;74.79
15007;BME280;7599;50.748;13.142;2024-02-23T06:27:39;93755.16;;;11.34;74.51
15007;BME280;7599;50.748;13.142;2024-02-23T06:30:42;93759.72;;;11.30;74.79
15007;BME280;7599;50.748;13.142;2024-02-23T06:33:46;93755.50;;;11.29;74.76
15007;BME280;7599;50.748;13.142;2024-02-23T06:36:51;93760.50;;;11.30;74.59
15007;BME280;7599;50.748;13.142;2024-02-23T06:39:53;93758.56;;;11.31;74.64
15007;BME280;7599;50.748;13.142;2024-02-23T06:42:58;93765.53;;;11.36;74.16
15007;BME280;7599;50.748;13.142;2024-02-23T06:46:04;93773.56;;;11.32;74.34
15007;BME280;7599;50.748;13.142;2024-02-23T06:49:07;93781.66;;;11.32;75.04
15007;BME280;7599;50.748;13.142;2024-02-23T06:52:10;93780.06;;;11.31;74.68
15007;BME280;7599;50.748;13.142;2024-02-23T06:55:13;93785.88;;;11.33;74.99
15007;BME280;7599;50.748;13.142;2024-02-23T06:58:19;93784.69;;;11.30;75.01
15007;BME280;7599;50.748;13.142;2024-02-23T07:01:22;93805.84;;;11.36;74.92
15007;BME280;7599;50.748;13.142;2024-02-23T07:04:24;93813.16;;;11.35;75.23
15007;BME280;7599;50.748;13.142;2024-02-23T07:07:29;93813.50;;;11.30;74.88
15007;BME280;7599;50.748;13.142;2024-02-23T07:10:34;93826.94;;;11.30;75.04
15007;BME280;7599;50.748;13.142;2024-02-23T07:13:38;93838.13;;;11.32;75.10
15007;BME280;7599;50.748;13.142;2024-02-23T07:16:41;93846.97;;;11.32;74.63
15007;BME280;7599;50.748;13.142;2024-02-23T07:19:44;93849.59;;;11.29;75.05
15007;BME280;7599;50.748;13.142;2024-02-23T07:22:47;93859.63;;;11.32;74.78
15007;BME280;7599;50.748;13.142;2024-02-23T07:25:50;93856.09;;;11.24;74.74
15007;BME280;7599;50.748;13.142;2024-02-23T07:28:54;93868.44;;;11.29;74.97
15007;BME280;7599;50.748;13.142;2024-02-23T07:31:57;93868.78;;;11.27;75.22
15007;BME280;7599;50.748;13.142;2024-02-23T07:35:00;93874.56;;;11.29;75.09
15007;BME280;7599;50.748;13.142;2024-02-23T07:38:05;93885.72;;;11.28;75.18
15007;BME280;7599;50.748;13.142;2024-02-23T07:41:07;93895.66;;;11.27;75.12
15007;BME280;7599;50.748;13.142;2024-02-23T07:44:11;93908.00;;;11.28;75.35
15007;BME280;7599;50.748;13.142;2024-02-23T07:47:14;93913.38;;;11.28;75.47
15007;BME280;7599;50.748;13.142;2024-02-23T07:50:17;93911.03;;;11.27;74.98
15007;BME280;7599;50.748;13.142;2024-02-23T07:54:28;93905.31;;;11.28;75.46
15007;BME280;7599;50.748;13.142;2024-02-23T08:07:51;93915.69;;;11.30;75.79
15007;BME280;7599;50.748;13.142;2024-02-23T08:10:54;93910.31;;;11.30;74.80
15007;BME280;7599;50.748;13.142;2024-02-23T08:14:57;93919.53;;;11.29;75.05
15007;BME280;7599;50.748;13.142;2024-02-23T08:21:24;93905.66;;;11.27;74.92
15007;BME280;7599;50.748;13.142;2024-02-23T08:24:56;93903.78;;;11.31;74.95
15007;BME280;7599;50.748;13.142;2024-02-23T08:28:28;93903.38;;;11.29;75.36
15007;BME280;7599;50.748;13.142;2024-02-23T08:31:59;93898.41;;;11.31;75.14
15007;BME280;7599;50.748;13.142;2024-02-23T08:35:04;93895.28;;;11.25;74.74
15007;BME280;7599;50.748;13.142;2024-02-23T08:38:07;93907.25;;;11.31;74.43
15007;BME280;7599;50.748;13.142;2024-02-23T08:41:13;93904.94;;;11.30;74.09
15007;BME280;7599;50.748;13.142;2024-02-23T08:44:16;93898.78;;;11.29;74.95
15007;BME280;7599;50.748;13.142;2024-02-23T08:47:19;93904.19;;;11.33;74.51
15007;BME280;7599;50.748;13.142;2024-02-23T08:50:43;93910.34;;;11.33;75.33
15007;BME280;7599;50.748;13.142;2024-02-23T08:53:55;93911.84;;;11.31;75.25
15007;BME280;7599;50.748;13.142;2024-02-23T08:57:07;93917.22;;;11.31;75.49
15007;BME280;7599;50.748;13.142;2024-02-23T09:00:11;93910.63;;;11.25;75.14
15007;BME280;7599;50.748;13.142;2024-02-23T09:03:30;93926.81;;;11.28;75.02
15007;BME280;7599;50.748;13.142;2024-02-23T09:06:47;93931.00;;;11.26;74.86
15007;BME280;7599;50.748;13.142;2024-02-23T09:09:51;93921.78;;;11.27;74.73
15007;BME280;7599;50.748;13.142;2024-02-23T09:12:56;93926.44;;;11.30;75.18
15007;BME280;7599;50.748;13.142;2024-02-23T09:16:00;93937.19;;;11.30;75.04
15007;BME280;7599;50.748;13.142;2024-02-23T09:19:18;93949.16;;;11.32;74.89
15007;BME280;7599;50.748;13.142;2024-02-23T09:22:23;93947.22;;;11.33;75.03
15007;BME280;7599;50.748;13.142;2024-02-23T09:25:27;93947.94;;;11.30;75.11
15007;BME280;7599;50.748;13.142;2024-02-23T09:28:35;93936.03;;;11.31;74.45
15007;BME280;7599;50.748;13.142;2024-02-23T09:31:38;93944.44;;;11.26;74.51
15007;BME280;7599;50.748;13.142;2024-02-23T09:34:42;93932.53;;;11.27;75.00
15007;BME280;7599;50.748;13.142;2024-02-23T09:37:47;93936.44;;;11.29;75.30
15007;BME280;7599;50.748;13.142;2024-02-23T09:40:49;93922.59;;;11.31;75.70
15007;BME280;7599;50.748;13.142;2024-02-23T09:47:56;93925.22;;;11.24;75.55
15007;BME280;7599;50.748;13.142;2024-02-23T09:50:59;93930.59;;;11.24;75.20
15007;BME280;7599;50.748;13.142;2024-02-23T09:54:04;93943.28;;;11.27;74.82
15007;BME280;7599;50.748;13.142;2024-02-23T09:57:07;93961.81;;;11.32;75.54
15007;BME280;7599;50.748;13.142;2024-02-23T10:00:18;93961.03;;;11.31;74.92
15007;BME280;7599;50.748;13.142;2024-02-23T10:03:24;93959.47;;;11.30;75.53
15007;BME280;7599;50.748;13.142;2024-02-23T10:06:33;93956.34;;;11.25;74.74
15007;BME280;7599;50.748;13.142;2024-02-23T10:09:37;93969.47;;;11.30;75.00
15007;BME280;7599;50.748;13.142;2024-02-23T10:12:41;93964.09;;;11.30;75.13
15007;BME280;7599;50.748;13.142;2024-02-23T10:15:45;93969.47;;;11.30;75.06
15007;BME280;7599;50.748;13.142;2024-02-23T10:19:09;93976.34;;;11.27;75.10
15007;BME280;7599;50.748;13.142;2024-02-23T10:22:11;93979.84;;;11.31;75.28
15007;BME280;7599;50.748;13.142;2024-02-23T10:25:15;93972.53;;;11.28;75.74
15007;BME280;7599;50.748;13.142;2024-02-23T10:28:18;93979.06;;;11.31;75.28
15007;BME280;7599;50.748;13.142;2024-02-23T10:31:24;93980.66;;;11.32;75.19
15007;BME280;7599;50.748;13.142;2024-02-23T10:34:29;93988.28;;;11.30;74.96
15007;BME280;7599;50.748;13.142;2024-02-23T10:37:33;93979.44;;;11.29;75.29
15007;BME280;7599;50.748;13.142;2024-02-23T10:40:39;93992.53;;;11.31;75.70
15007;BME280;7599;50.748;13.142;2024-02-23T10:43:44;94001.00;;;11.33;75.56
15007;BME280;7599;50.748;13.142;2024-02-23T10:46:48;94010.22;;;11.32;75.13
15007;BME280;7599;50.748;13.142;2024-02-23T10:49:55;94019.78;;;11.29;75.06
15007;BME280;7599;50.748;13.142;2024-02-23T10:53:01;94013.63;;;11.29;74.97
15007;BME280;7599;50.748;13.142;2024-02-23T10:56:07;94020.56;;;11.30;74.99
15007;BME280;7599;50.748;13.142;2024-02-23T10:59:10;94025.13;;;11.26;75.29
15007;BME280;7599;50.748;13.142;2024-02-23T11:02:14;94019.38;;;11.27;74.98
15007;BME280;7599;50.748;13.142;2024-02-23T11:05:22;94013.22;;;11.27;75.04
15007;BME280;7599;50.748;13.142;2024-02-23T11:08:27;94011.72;;;11.29;74.85
15007;BME280;7599;50.748;13.142;2024-02-23T11:11:32;94017.50;;;11.31;74.97
15007;BME280;7599;50.748;13.142;2024-02-23T11:14:36;94027.47;;;11.31;75.05
15007;BME280;7599;50.748;13.142;2024-02-23T11:17:39;94025.50;;;11.24;74.73
15007;BME280;7599;50.748;13.142;2024-02-23T11:20:43;94027.09;;;11.29;75.19
15007;BME280;7599;50.748;13.142;2024-02-23T11:23:48;94023.66;;;11.32;75.12
15007;BME280;7599;50.748;13.142;2024-02-23T11:32:11;94027.84;;;11.29;74.78
15007;BME280;7599;50.748;13.142;2024-02-23T11:40:42;94027.13;;;11.32;75.22
15007;BME280;7599;50.748;13.142;2024-02-23T11:47:23;94015.94;;;11.30;74.93
15007;BME280;7599;50.748;13.142;2024-02-23T11:49:14;94024.06;;;11.34;75.02
15007;BME280;7599;50.748;13.142;2024-02-23T11:57:33;94012.13;;;11.31;74.32
15007;BME280;7599;50.748;13.142;2024-02-23T12:00:50;94005.56;;;11.29;74.61
15007;BME280;7599;50.748;13.142;2024-02-23T12:09:06;94020.59;;;11.33;74.98
15007;BME280;7599;50.748;13.142;2024-02-23T12:12:45;94012.44;;;11.26;74.37
15007;BME280;7599;50.748;13.142;2024-02-23T12:15:58;94024.06;;;11.34;74.53
15007;BME280;7599;50.748;13.142;2024-02-23T12:28:00;94007.16;;;11.33;74.43
15007;BME280;7599;50.748;13.142;2024-02-23T12:31:05;94014.41;;;11.29;74.28
15007;BME280;7599;50.748;13.142;2024-02-23T12:34:11;94011.28;;;11.27;73.98
15007;BME280;7599;50.748;13.142;2024-02-23T12:37:22;94013.22;;;11.27;74.11
15007;BME280;7599;50.748;13.142;2024-02-23T12:40:44;94004.44;;;11.30;74.93
15007;BME280;7599;50.748;13.142;2024-02-23T12:44:20;94010.94;;;11.29;74.20
15007;BME280;7599;50.748;13.142;2024-02-23T12:47:31;94020.22;;;11.35;74.37
15007;BME280;7599;50.748;13.142;2024-02-23T12:50:54;94022.88;;;11.31;74.52
15007;BME280;7599;50.748;13.142;2024-02-23T12:54:01;94028.31;;;11.35;74.73
15007;BME280;7599;50.748;13.142;2024-02-23T12:57:04;94027.53;;;11.35;74.65
15007;BME280;7599;50.748;13.142;2024-02-23T13:00:14;94022.88;;;11.31;74.29
15007;BME280;7599;50.748;13.142;2024-02-23T13:03:17;94022.88;;;11.31;74.52
15007;BME280;7599;50.748;13.142;2024-02-23T13:06:38;94028.69;;;11.33;74.58
15007;BME280;7599;50.748;13.142;2024-02-23T13:09:41;94020.97;;;11.32;74.47
15007;BME280;7599;50.748;13.142;2024-02-23T13:12:45;94022.53;;;11.33;74.29
15007;BME280;7599;50.748;13.142;2024-02-23T13:15:52;94012.16;;;11.35;74.73
15007;BME280;7599;50.748;13.142;2024-02-23T13:18:56;94014.41;;;11.29;74.38
15007;BME280;7599;50.748;13.142;2024-02-23T13:22:02;94031.75;;;11.36;74.82
15007;BME280;7599;50.748;13.142;2024-02-23T13:25:05;94024.44;;;11.32;74.32
15007;BME280;7599;50.748;13.142;2024-02-23T13:28:09;94027.47;;;11.31;73.98
15007;BME280;7599;50.748;13.142;2024-02-23T13:31:13;94023.28;;;11.33;74.63
15007;BME280;7599;50.748;13.142;2024-02-23T13:34:30;94010.22;;;11.32;74.84
15007;BME280;7599;50.748;13.142;2024-02-23T13:37:33;94014.03;;;11.31;74.40
15007;BME280;7599;50.748;13.142;2024-02-23T13:40:36;94021.72;;;11.29;73.85
15007;BME280;7599;50.748;13.142;2024-02-23T13:43:39;94025.56;;;11.31;74.88
15007;BME280;7599;50.748;13.142;2024-02-23T13:46:43;94035.97;;;11.33;74.48
15007;BME280;7599;50.748;13.142;2024-02-23T13:50:14;94029.34;;;11.27;74.27
15007;BME280;7599;50.748;13.142;2024-02-23T13:53:26;94033.22;;;11.29;74.59
15007;BME280;7599;50.748;13.142;2024-02-23T13:56:32;94024.03;;;11.30;74.13
15007;BME280;7599;50.748;13.142;2024-02-23T13:59:50;94019.38;;;11.27;73.90
15007;BME280;7599;50.748;13.142;2024-02-23T14:03:07;94013.59;;;11.25;74.23
15007;BME280;7599;50.748;13.142;2024-02-23T14:06:11;94016.66;;;11.27;74.31
15007;BME280;7599;50.748;13.142;2024-02-23T14:09:27;94027.09;;;11.29;74.06
15007;BME280;7599;50.748;13.142;2024-02-23T14:12:30;94040.94;;;11.31;74.24
15007;BME280;7599;50.748;13.142;2024-02-23T14:15:32;94033.22;;;11.29;74.38
15007;BME280;7599;50.748;13.142;2024-02-23T14:18:44;94040.59;;;11.32;73.92
15007;BME280;7599;50.748;13.142;2024-02-23T14:21:47;94044.38;;;11.28;73.96
15007;BME280;7599;50.748;13.142;2024-02-23T14:24:52;94047.06;;;11.28;74.07
15007;BME280;7599;50.748;13.142;2024-02-23T14:27:55;94043.63;;;11.31;74.03
15007;BME280;7599;50.748;13.142;2024-02-23T14:30:58;94038.66;;;11.33;73.84
15007;BME280;7599;50.748;13.142;2024-02-23T14:34:02;94034.78;;;11.30;74.42
15007;BME280;7599;50.748;13.142;2024-02-23T14:37:05;94033.59;;;11.28;74.46
15007;BME280;7599;50.748;13.142;2024-02-23T14:40:08;94036.25;;;11.24;73.98
15007;BME280;7599;50.748;13.142;2024-02-23T14:43:16;94040.94;;;11.31;74.28
15007;BME280;7599;50.748;13.142;2024-02-23T14:46:18;94038.66;;;11.33;74.52
15007;BME280;7599;50.748;13.142;2024-02-23T14:49:34;94032.84;;;11.31;74.30
15007;BME280;7599;50.748;13.142;2024-02-23T14:52:53;94037.91;;;11.32;74.27
15007;BME280;7599;50.748;13.142;2024-02-23T14:55:56;94030.53;;;11.29;74.71
15007;BME280;7599;50.748;13.142;2024-02-23T14:59:31;94022.44;;;11.26;74.54
15007;BME280;7599;50.748;13.142;2024-02-23T15:02:41;94022.06;;;11.27;74.60
15007;BME280;7599;50.748;13.142;2024-02-23T15:05:45;94018.63;;;11.30;74.03
15007;BME280;7599;50.748;13.142;2024-02-23T15:08:48;94018.19;;;11.25;74.14
15007;BME280;7599;50.748;13.142;2024-02-23T15:11:50;94025.56;;;11.31;74.13
15007;BME280;7599;50.748;13.142;2024-02-23T15:14:54;94033.94;;;11.26;74.52
15007;BME280;7599;50.748;13.142;2024-02-23T15:17:57;94040.09;;;11.27;74.28
15007;BME280;7599;50.748;13.142;2024-02-23T15:21:01;94035.50;;;11.27;74.61
15007;BME280;7599;50.748;13.142;2024-02-23T15:24:05;94034.38;;;11.28;74.54
15007;BME280;7599;50.748;13.142;2024-02-23T15:27:08;94025.88;;;11.26;74.40
15007;BME280;7599;50.748;13.142;2024-02-23T15:30:25;94020.97;;;11.32;74.32
15007;BME280;7599;50.748;13.142;2024-02-23T15:33:35;94000.25;;;11.32;74.48
15007;BME280;7599;50.748;13.142;2024-02-23T15:36:45;93987.47;;;11.26;74.08
15007;BME280;7599;50.748;13.142;2024-02-23T15:39:48;94007.53;;;11.32;74.52
15007;BME280;7599;50.748;13.142;2024-02-23T15:42:51;94001.75;;;11.30;74.09
15007;BME280;7599;50.748;13.142;2024-02-23T15:45:54;93993.28;;;11.31;74.37
15007;BME280;7599;50.748;13.142;2024-02-23T15:49:11;93980.56;;;11.25;74.21
15007;BME280;7599;50.748;13.142;2024-02-23T15:52:35;93996.72;;;11.28;74.51
15007;BME280;7599;50.748;13.142;2024-02-23T15:55:51;94006.41;;;11.33;73.84
15007;BME280;7599;50.748;13.142;2024-02-23T15:59:09;94015.94;;;11.30;73.99
15007;BME280;7599;50.748;13.142;2024-02-23T16:02:12;94016.28;;;11.25;73.73
15007;BME280;7599;50.748;13.142;2024-02-23T16:05:15;94044.03;;;11.33;74.23
15007;BME280;7599;50.748;13.142;2024-02-23T16:08:38;94062.81;;;11.29;73.80
15007;BME280;7599;50.748;13.142;2024-02-23T16:11:45;94082.00;;;11.28;74.52
15007;BME280;7599;50.748;13.142;2024-02-23T16:14:50;94073.94;;;11.28;74.48
15007;BME280;7599;50.748;13.142;2024-02-23T16:17:52;94087.34;;;11.24;74.18
15007;BME280;7599;50.748;13.142;2024-02-23T16:20:56;94089.72;;;11.29;74.39
15007;BME280;7599;50.748;13.142;2024-02-23T16:24:03;94089.25;;;11.24;74.75
15007;BME280;7599;50.748;13.142;2024-02-23T16:27:32;94101.22;;;11.30;74.46
15007;BME280;7599;50.748;13.142;2024-02-23T16:30:37;94095.84;;;11.30;74.35
15007;BME280;7599;50.748;13.142;2024-02-23T16:34:12;94077.75;;;11.27;74.40
15007;BME280;7599;50.748;13.142;2024-02-23T16:37:14;94073.94;;;11.28;74.58
15007;BME280;7599;50.748;13.142;2024-02-23T16:40:18;94077.47;;;11.32;74.74
15007;BME280;7599;50.748;13.142;2024-02-23T16:43:24;94048.91;;;11.24;74.38
15007;BME280;7599;50.748;13.142;2024-02-23T16:46:27;94047.78;;;11.25;75.18
15007;BME280;7599;50.748;13.142;2024-02-23T16:49:30;94047.78;;;11.25;73.83
15007;BME280;7599;50.748;13.142;2024-02-23T16:52:34;94052.84;;;11.30;74.49
15007;BME280;7599;50.748;13.142;2024-02-23T16:55:37;94059.34;;;11.29;74.33
15007;BME280;7599;50.748;13.142;2024-02-23T16:58:40;94054.38;;;11.31;74.88
15007;BME280;7599;50.748;13.142;2024-02-23T17:01:44;94054.03;;;11.32;74.72
15007;BME280;7599;50.748;13.142;2024-02-23T17:04:48;94038.88;;;11.21;74.37
15007;BME280;7599;50.748;13.142;2024-02-23T17:07:50;94037.00;;;11.25;74.73
15007;BME280;7599;50.748;13.142;2024-02-23T17:10:53;94033.50;;;11.21;74.81
15007;BME280;7599;50.748;13.142;2024-02-23T17:13:56;94036.97;;;11.21;74.41
15007;BME280;7599;50.748;13.142;2024-02-23T17:16:58;94045.75;;;11.18;74.56
15007;BME280;7599;50.748;13.142;2024-02-23T17:20:08;94058.47;;;11.21;74.24
15007;BME280;7599;50.748;13.142;2024-02-23T17:23:10;94060.00;;;11.22;74.39
15007;BME280;7599;50.748;13.142;2024-02-23T17:26:13;94063.78;;;11.18;74.37
15007;BME280;7599;50.748;13.142;2024-02-23T17:29:16;94065.41;;;11.22;74.76
15007;BME280;7599;50.748;13.142;2024-02-23T17:32:18;94062.38;;;11.24;74.42
15007;BME280;7599;50.748;13.142;2024-02-23T17:35:24;94063.06;;;11.21;74.51
15007;BME280;7599;50.748;13.142;2024-02-23T17:38:26;94055.41;;;11.23;74.43
15007;BME280;7599;50.748;13.142;2024-02-23T17:41:29;94060.78;;;11.23;74.44
15007;BME280;7599;50.748;13.142;2024-02-23T17:44:32;94072.81;;;11.29;74.50